Westminster, CO

1:03 PM MDT on September 01, 2015 (GMT -0600)
Gold Ridge | | Change Station
CLOSE
Current Station
Personal Weather Station
Location: Arvada, CO
Elevation: 5440 ft
Nearby Weather Stations

Elev 5440 ft 39.83 °N, 105.07 °W | Updated 17 seconds ago

Partly Cloudy
Partly Cloudy
87.3 °F
Feels Like 84 °F
N
0.2
Wind Variable Wind from ENE
Gusts 2.5 mph

Today
High -- | Low -- °F
--% Chance of Precip.
Yesterday
High -- | Low -- °F
Precip. -- in
6:28 AM 7:31 PM
Waning Gibbous, 87% visible
Pressure 30.12 in
Visibility 30.0 miles
Clouds Few 10000 ft
Scattered Clouds 15000 ft
Heat Index 84 °F
Dew Point 44 °F
Humidity 22%
Rainfall 0.00 in
Snow Depth Not available.
UV 1.0 out of 12
Pollen 9.90 out of 12
Air Quality Not available.
Flu Activity Not available.
SPECI KBJC 011806Z 25014G20KT 30SM FEW100 SCT150 30/03 A3012 RMK VIRGA OVRHD
Pressure 30.12 in
Visibility 30.0 miles
Clouds Few 10000 ft
Scattered Clouds 15000 ft
Heat Index 84 °F
Dew Point 44 °F
Humidity 22%
Rainfall 0.00 in
Snow Depth Not available.
UV 1.0 out of 12
Pollen 9.90 out of 12
Air Quality Not available.
Flu Activity Not available.
SPECI KBJC 011806Z 25014G20KT 30SM FEW100 SCT150 30/03 A3012 RMK VIRGA OVRHD

10-Day Weather Forecast

×

Almanac

Astronomy

Sep. 01, 2015 Rise Set
Actual Time
Civil Twilight
Nautical Twilight
Astronomical Twilight
Moon
Length of Visible Light
Length of Day
Tomorrow will be .
, % of the Moon is Illuminated

Today's Extremes

State Highs State Lows

Community

WunderPhotos

Upload Photos

1,851,596 photos uploaded!

WunderBlogs® & News

Nearby

Air Quality

  Air Quality AQ Index Pollutant
Not available.

Snow Depth

Station Depth Elevation

Earthquake Activity

City Distance Mag. Time & Date
Minimum magnitude displayed is 2.5.

Coastal Water Temperatures

Place Temperature

Stations

Nearby Weather Stations

Station Location Temp. Windchill Dew Point Humidity Wind Precip. Elev Updated Type